Time;durP1;ratioP1;P1;durP2;ratioP2;P2;SDS_P1;SDS_P2;PMS_P1;PMS_P2;Temp;Humidity;BMP_temperature;BMP_pressure;BME280_temperature;BME280_humidity;BME280_pressure;Samples;Min_cycle;Max_cycle;Signal;HPM_P1;HPM_P2
2023/06/05 00:02:09;;;;;;;5.50;2.17;;;;;;;20.59;62.95;99821.66;5037684;28;20390;-70
2023/06/05 00:04:39;;;;;;;5.63;1.90;;;;;;;20.60;62.63;99818.03;5036273;28;20024;-71
2023/06/05 00:07:05;;;;;;;6.65;2.20;;;;;;;20.54;62.89;99826.41;5036162;28;20440;-71
2023/06/05 00:09:30;;;;;;;8.10;2.00;;;;;;;20.49;63.18;99821.28;5036239;28;20037;-71
2023/06/05 00:11:56;;;;;;;6.53;2.07;;;;;;;20.48;63.28;99821.38;5018274;28;20025;-70
2023/06/05 00:14:21;;;;;;;7.43;1.87;;;;;;;20.47;62.72;99823.19;5036444;28;20107;-71
2023/06/05 00:16:47;;;;;;;8.30;2.20;;;;;;;20.46;63.13;99823.28;5036074;28;20028;-70
2023/06/05 00:19:12;;;;;;;6.73;2.33;;;;;;;20.46;63.22;99825.94;5036404;28;20040;-71
2023/06/05 00:21:37;;;;;;;5.40;2.03;;;;;;;20.44;63.33;99820.66;5036251;28;20103;-70
2023/06/05 00:24:03;;;;;;;6.40;2.13;;;;;;;20.46;63.37;99817.91;5036005;28;20462;-70
2023/06/05 00:26:28;;;;;;;7.20;2.00;;;;;;;20.37;62.69;99811.25;5036341;28;20041;-71
2023/06/05 00:28:54;;;;;;;5.90;2.20;;;;;;;20.25;62.34;99807.41;5036005;28;20060;-70
2023/06/05 00:31:21;;;;;;;6.33;2.33;;;;;;;20.20;62.18;99818.31;5036395;28;20539;-71
2023/06/05 00:33:48;;;;;;;6.45;2.08;;;;;;;20.15;62.44;99812.34;5036381;28;20022;-71
2023/06/05 00:36:13;;;;;;;5.18;2.00;;;;;;;20.10;62.27;99805.50;5036001;28;20501;-70
2023/06/05 00:38:39;;;;;;;7.23;2.20;;;;;;;20.05;62.56;99808.44;5036127;28;20029;-71
2023/06/05 00:41:05;;;;;;;8.30;2.33;;;;;;;19.94;62.65;99817.84;5036056;28;20048;-70
2023/06/05 00:43:30;;;;;;;7.38;2.20;;;;;;;19.96;62.48;99806.22;5039784;28;20070;-71
2023/06/05 00:46:02;;;;;;;6.60;2.20;;;;;;;19.97;62.57;99815.94;5039891;28;20045;-71
2023/06/05 00:48:28;;;;;;;6.75;2.20;;;;;;;19.94;62.28;99817.84;5027536;28;20132;-71
2023/06/05 00:50:53;;;;;;;7.07;2.70;;;;;;;19.91;62.65;99828.69;5039367;28;20064;-70
2023/06/05 00:53:19;;;;;;;5.75;2.08;;;;;;;19.89;62.76;99819.84;5039903;28;20029;-71
2023/06/05 00:55:45;;;;;;;6.03;2.10;;;;;;;19.85;62.55;99820.06;5039487;28;20374;-71
2023/06/05 00:58:10;;;;;;;5.60;2.10;;;;;;;19.77;62.81;99816.00;5039722;28;20091;-71
2023/06/05 01:00:36;;;;;;;5.93;2.00;;;;;;;19.70;63.05;99824.38;5040640;28;20030;-71
2023/06/05 01:03:02;;;;;;;6.50;2.60;;;;;;;19.63;63.39;99818.47;5039697;28;20031;-71
2023/06/05 01:05:28;;;;;;;6.30;2.53;;;;;;;19.59;63.43;99816.88;5039389;28;20017;-71
2023/06/05 01:07:54;;;;;;;6.90;2.60;;;;;;;19.58;63.61;99815.16;5039083;28;20071;-71
2023/06/05 01:10:20;;;;;;;6.10;2.60;;;;;;;19.47;64.28;99813.91;5039134;28;20026;-71
2023/06/05 01:13:03;;;;;;;5.43;2.45;;;;;;;19.44;64.22;99818.50;5039311;28;20018;-71
2023/06/05 01:15:31;;;;;;;7.65;2.30;;;;;;;19.44;64.22;99811.38;5039228;28;20053;-71
2023/06/05 01:17:58;;;;;;;5.57;2.40;;;;;;;19.32;64.88;99814.63;5039269;28;20029;-71
2023/06/05 01:20:32;;;;;;;5.60;2.50;;;;;;;19.29;65.00;99807.63;5038941;28;20390;-71
2023/06/05 01:22:57;;;;;;;5.45;2.38;;;;;;;19.32;64.84;99806.59;5021414;28;20030;-70
2023/06/05 01:25:23;;;;;;;5.93;2.27;;;;;;;19.36;64.69;99806.41;5038857;28;20028;-71
2023/06/05 01:27:58;;;;;;;5.30;2.30;;;;;;;19.39;65.01;99809.84;5039086;28;20036;-70
2023/06/05 01:30:32;;;;;;;4.90;2.20;;;;;;;19.42;65.00;99805.25;5038766;28;20548;-71
2023/06/05 01:33:17;;;;;;;5.82;2.38;;;;;;;19.48;65.02;99799.59;5038945;28;20033;-71
2023/06/05 01:35:44;;;;;;;5.97;2.42;;;;;;;19.46;65.02;99809.50;5027647;28;20465;-70
2023/06/05 01:38:11;;;;;;;7.28;2.38;;;;;;;19.42;65.29;99810.59;5038944;28;20029;-71
2023/06/05 01:40:37;;;;;;;7.43;2.50;;;;;;;19.40;65.22;99803.56;5038746;28;20033;-71
2023/06/05 01:43:05;;;;;;;6.90;2.75;;;;;;;19.37;65.36;99815.25;5038753;28;20026;-70
2023/06/05 01:45:31;;;;;;;7.07;2.90;;;;;;;19.31;65.63;99812.88;5038540;28;20029;-71
2023/06/05 01:47:57;;;;;;;6.43;2.42;;;;;;;19.31;65.62;99818.22;5038608;28;20057;-70
2023/06/05 01:50:24;;;;;;;7.03;2.80;;;;;;;19.31;65.75;99818.22;5020884;28;20034;-71
2023/06/05 01:52:52;;;;;;;5.28;2.50;;;;;;;19.33;65.65;99819.91;5038585;28;20028;-71
2023/06/05 01:55:23;;;;;;;5.25;2.70;;;;;;;19.35;65.91;99825.16;5038769;28;20025;-70
2023/06/05 01:57:50;;;;;;;6.93;2.55;;;;;;;19.34;65.92;99821.63;5038593;28;20022;-70
2023/06/05 02:00:15;;;;;;;7.43;2.50;;;;;;;19.36;66.02;99829.56;5038450;28;20398;-71
2023/06/05 02:02:50;;;;;;;7.47;2.63;;;;;;;19.36;66.54;99829.56;5039527;28;20030;-70
2023/06/05 02:05:17;;;;;;;5.82;2.55;;;;;;;19.36;65.71;99833.09;5038537;28;20481;-70
2023/06/05 02:07:49;;;;;;;7.40;2.90;;;;;;;19.37;65.99;99828.59;5038174;28;20034;-71
2023/06/05 02:10:14;;;;;;;8.73;3.00;;;;;;;19.34;65.68;99823.41;5038267;28;20449;-71
2023/06/05 02:12:41;;;;;;;5.95;2.50;;;;;;;19.29;66.10;99814.78;5038161;28;20017;-71
2023/06/05 02:15:08;;;;;;;7.85;2.70;;;;;;;19.24;66.14;99816.81;5038521;28;20025;-71
2023/06/05 02:17:34;;;;;;;6.45;2.67;;;;;;;19.18;66.13;99808.16;5030252;28;20083;-70
2023/06/05 02:19:59;;;;;;;5.50;2.63;;;;;;;19.17;66.08;99811.75;5038066;28;20033;-71
2023/06/05 02:22:25;;;;;;;6.00;3.08;;;;;;;19.17;65.76;99816.22;5038100;28;20025;-71
2023/06/05 02:24:51;;;;;;;7.70;3.13;;;;;;;19.16;65.92;99820.69;5038080;28;20029;-70
2023/06/05 02:27:17;;;;;;;8.60;3.17;;;;;;;19.16;65.98;99815.34;5020309;28;20033;-71
2023/06/05 02:29:43;;;;;;;5.40;2.42;;;;;;;19.16;66.16;99820.69;5016780;28;20109;-71
2023/06/05 02:32:09;;;;;;;7.70;2.97;;;;;;;19.15;66.23;99816.28;5024674;28;20099;-71
2023/06/05 02:34:34;;;;;;;6.87;3.00;;;;;;;19.15;66.24;99808.28;5037851;28;20036;-71
2023/06/05 02:36:59;;;;;;;6.23;2.90;;;;;;;19.16;66.08;99810.00;5038014;28;20284;-71
2023/06/05 02:39:25;;;;;;;7.53;3.20;;;;;;;19.15;66.50;99818.94;5037953;28;20459;-71
2023/06/05 02:41:51;;;;;;;7.93;3.05;;;;;;;19.15;66.55;99810.94;5037663;28;20100;-71
2023/06/05 02:44:16;;;;;;;7.23;2.87;;;;;;;19.14;66.66;99813.69;5037922;28;20530;-71
2023/06/05 02:46:42;;;;;;;7.95;2.88;;;;;;;19.10;66.71;99814.78;5037211;28;20770;-71
2023/06/05 02:49:07;;;;;;;9.53;3.00;;;;;;;19.06;66.84;99814.94;5037879;28;20488;-71
2023/06/05 02:51:33;;;;;;;8.93;3.10;;;;;;;19.03;66.76;99809.72;5037376;28;20103;-71
2023/06/05 02:53:58;;;;;;;8.97;3.53;;;;;;;18.99;66.99;99817.94;5037731;28;20032;-71
2023/06/05 02:56:26;;;;;;;6.83;3.37;;;;;;;18.96;66.93;99818.06;5037477;28;20036;-71
2023/06/05 02:58:51;;;;;;;7.20;3.20;;;;;;;18.94;67.19;99816.34;5037569;28;20021;-71
2023/06/05 03:01:17;;;;;;;5.93;2.97;;;;;;;18.94;67.17;99816.34;5038887;28;20083;-70
2023/06/05 03:03:42;;;;;;;8.47;2.90;;;;;;;18.92;67.03;99815.50;5037297;28;20280;-71
2023/06/05 03:06:08;;;;;;;7.57;3.47;;;;;;;18.89;67.15;99814.81;5036858;28;20021;-71
2023/06/05 03:08:35;;;;;;;7.53;3.57;;;;;;;18.85;67.41;99822.06;5019545;28;20025;-71
2023/06/05 03:11:00;;;;;;;7.53;3.50;;;;;;;18.82;67.75;99816.88;5037076;28;20044;-71
2023/06/05 03:13:26;;;;;;;10.98;3.58;;;;;;;18.76;67.58;99822.50;5037247;28;20025;-71
2023/06/05 03:15:56;;;;;;;7.37;3.40;;;;;;;18.74;67.84;99824.38;5037111;28;20045;-71
2023/06/05 03:18:24;;;;;;;8.00;3.22;;;;;;;18.72;67.64;99820.91;5036949;28;20397;-71
2023/06/05 03:20:50;;;;;;;6.68;3.60;;;;;;;18.65;68.00;99823.00;5036936;28;20033;-71
2023/06/05 03:23:16;;;;;;;7.68;3.47;;;;;;;18.63;68.17;99825.72;5037273;28;20117;-71
2023/06/05 03:25:41;;;;;;;7.60;3.90;;;;;;;18.59;68.39;99813.44;5037101;28;20025;-71
2023/06/05 03:28:07;;;;;;;7.93;3.88;;;;;;;18.53;68.67;99827.06;5036917;28;20018;-71
2023/06/05 03:30:32;;;;;;;9.57;3.60;;;;;;;18.51;68.83;99824.44;5036797;28;20085;-71
2023/06/05 03:32:58;;;;;;;8.70;3.50;;;;;;;18.47;68.76;99816.69;5036795;28;20931;-70
2023/06/05 03:35:23;;;;;;;12.77;4.07;;;;;;;18.43;68.83;99823.94;5037037;28;20029;-71
2023/06/05 03:37:48;;;;;;;7.70;3.27;;;;;;;18.41;68.79;99827.59;5019238;28;20035;-71
2023/06/05 03:40:14;;;;;;;7.77;3.37;;;;;;;18.39;68.66;99826.78;5036860;28;20806;-70
2023/06/05 03:42:39;;;;;;;10.60;3.90;;;;;;;18.40;68.70;99831.19;5036957;28;20608;-70
2023/06/05 03:45:06;;;;;;;8.30;3.97;;;;;;;18.40;68.70;99831.19;5018661;28;20097;-71
2023/06/05 03:47:34;;;;;;;7.68;3.50;;;;;;;18.43;68.73;99825.72;5036730;28;20077;-71
2023/06/05 03:50:00;;;;;;;9.57;3.78;;;;;;;18.44;68.77;99831.00;5036575;28;20025;-71
2023/06/05 03:52:26;;;;;;;8.32;4.05;;;;;;;18.45;68.80;99831.88;5036949;28;20080;-71
2023/06/05 03:54:55;;;;;;;8.17;3.67;;;;;;;18.39;69.03;99827.69;5036783;28;20465;-71
2023/06/05 03:57:21;;;;;;;8.60;4.15;;;;;;;18.33;69.08;99831.47;5036578;28;20036;-71
2023/06/05 03:59:49;;;;;;;9.30;3.73;;;;;;;18.30;68.99;99831.59;5023379;28;20030;-71
2023/06/05 04:02:15;;;;;;;8.38;3.80;;;;;;;18.28;68.93;99829.94;5038142;28;20025;-71
2023/06/05 04:04:40;;;;;;;8.60;3.70;;;;;;;18.24;69.12;99836.31;5036392;28;20033;-71
2023/06/05 04:07:06;;;;;;;12.18;4.10;;;;;;;18.18;69.18;99827.66;5036747;28;20452;-71
2023/06/05 04:09:32;;;;;;;10.40;4.03;;;;;;;18.19;69.23;99844.50;5036794;28;20536;-71
2023/06/05 04:11:58;;;;;;;9.43;3.67;;;;;;;18.20;69.13;99846.25;5036531;28;20024;-71
2023/06/05 04:14:24;;;;;;;9.55;4.47;;;;;;;18.19;69.10;99845.38;5036430;28;20025;-71
2023/06/05 04:16:50;;;;;;;9.90;4.33;;;;;;;18.14;69.29;99844.72;5021452;28;20049;-71
2023/06/05 04:19:16;;;;;;;11.75;4.53;;;;;;;18.06;69.48;99846.81;5040718;28;20460;-71
2023/06/05 04:21:41;;;;;;;10.00;4.83;;;;;;;17.98;69.72;99841.81;5040381;28;20025;-71
2023/06/05 04:24:10;;;;;;;9.10;4.43;;;;;;;17.93;70.01;99846.44;5022754;28;20029;-70
2023/06/05 04:26:37;;;;;;;11.63;4.85;;;;;;;17.86;70.10;99856.50;5040229;28;20033;-71
2023/06/05 04:29:09;;;;;;;12.63;4.87;;;;;;;17.84;70.04;99857.47;5040400;28;20021;-71
2023/06/05 04:31:35;;;;;;;11.43;4.50;;;;;;;17.85;69.97;99853.88;5040193;28;20021;-71
2023/06/05 04:34:01;;;;;;;11.32;4.38;;;;;;;17.87;70.12;99849.38;5040199;28;20022;-70
2023/06/05 04:36:28;;;;;;;10.57;4.20;;;;;;;17.87;69.96;99844.91;5040292;28;20108;-71
2023/06/05 04:38:54;;;;;;;13.13;4.18;;;;;;;17.85;70.17;99846.78;5040207;28;20112;-71
2023/06/05 04:41:21;;;;;;;10.32;4.18;;;;;;;17.89;70.10;99850.16;5040055;28;20064;-71
2023/06/05 04:43:46;;;;;;;9.87;4.17;;;;;;;17.94;69.92;99850.84;5040284;28;20028;-71
2023/06/05 04:46:11;;;;;;;11.20;4.50;;;;;;;17.97;69.69;99850.72;5039826;28;20470;-71
2023/06/05 04:48:37;;;;;;;12.63;4.47;;;;;;;18.00;69.75;99849.72;5039946;28;20045;-71
2023/06/05 04:51:03;;;;;;;16.23;5.57;;;;;;;18.02;69.91;99858.53;5039827;28;20064;-71
2023/06/05 04:53:30;;;;;;;10.20;4.88;;;;;;;18.05;69.91;99859.28;5039895;28;20025;-70
2023/06/05 04:56:00;;;;;;;12.38;4.95;;;;;;;18.05;69.96;99859.28;5039777;28;20481;-71
2023/06/05 04:58:26;;;;;;;12.00;4.93;;;;;;;18.04;70.07;99857.56;5040032;28;20025;-71
2023/06/05 05:00:51;;;;;;;9.57;4.57;;;;;;;18.16;69.91;99865.97;5041346;28;20485;-71
2023/06/05 05:03:17;;;;;;;9.00;4.82;;;;;;;18.29;69.61;99858.31;5039871;28;20084;-71
2023/06/05 05:05:43;;;;;;;12.20;5.17;;;;;;;18.42;69.07;99867.53;5039575;28;20442;-71
2023/06/05 05:08:08;;;;;;;11.35;4.60;;;;;;;18.56;68.75;99860.72;5039769;28;20099;-71
2023/06/05 05:10:33;;;;;;;10.77;4.20;;;;;;;18.63;68.22;99865.72;5039293;28;20021;-71
2023/06/05 05:13:02;;;;;;;14.20;4.53;;;;;;;18.58;68.53;99865.06;5039694;28;20082;-71
2023/06/05 05:15:28;;;;;;;8.95;4.50;;;;;;;18.49;68.67;99868.13;5039488;28;20401;-71
2023/06/05 05:17:55;;;;;;;10.63;4.60;;;;;;;18.38;69.23;99870.38;5039648;28;20371;-71
2023/06/05 05:20:21;;;;;;;8.10;4.35;;;;;;;18.33;69.58;99868.78;5021592;28;20045;-71
2023/06/05 05:22:47;;;;;;;11.20;4.50;;;;;;;18.31;69.51;99881.31;5039404;28;20539;-71
2023/06/05 05:25:12;;;;;;;11.40;4.55;;;;;;;18.30;69.99;99874.25;5039180;28;20021;-71
2023/06/05 05:27:37;;;;;;;9.93;4.27;;;;;;;18.29;69.77;99875.19;5038933;28;20390;-71
2023/06/05 05:30:04;;;;;;;10.53;4.67;;;;;;;18.28;69.63;99875.22;5038985;28;20026;-71
2023/06/05 05:32:29;;;;;;;10.30;4.13;;;;;;;18.27;69.76;99869.06;5039307;28;20064;-71
2023/06/05 05:34:55;;;;;;;14.57;4.67;;;;;;;18.32;69.58;99877.72;5038328;28;20129;-71
2023/06/05 05:37:20;;;;;;;10.47;4.53;;;;;;;18.34;69.80;99870.53;5039267;28;20021;-71
2023/06/05 05:39:46;;;;;;;10.48;4.90;;;;;;;18.30;69.79;99874.25;5039008;28;20021;-71
2023/06/05 05:42:11;;;;;;;9.57;4.20;;;;;;;18.23;69.96;99878.13;5039267;28;20104;-71
2023/06/05 05:44:37;;;;;;;11.63;4.13;;;;;;;18.23;69.78;99875.44;5038784;28;20029;-71
2023/06/05 05:47:02;;;;;;;9.37;4.50;;;;;;;18.25;69.91;99870.91;5020667;28;20128;-70
2023/06/05 05:49:28;;;;;;;9.98;4.90;;;;;;;18.29;69.96;99869.84;5035174;28;20030;-71
2023/06/05 05:51:53;;;;;;;11.90;4.77;;;;;;;18.37;69.71;99874.88;5012214;28;20034;-71
2023/06/05 05:54:19;;;;;;;9.93;5.27;;;;;;;18.57;69.42;99875.81;5030999;28;20034;-71
2023/06/05 05:56:44;;;;;;;10.57;5.03;;;;;;;18.76;69.08;99870.53;5032561;28;20017;-70
2023/06/05 05:59:10;;;;;;;10.77;5.75;;;;;;;18.91;68.76;99863.63;5030933;28;20027;-71
2023/06/05 06:01:35;;;;;;;12.03;5.40;;;;;;;19.00;69.08;99870.38;5040920;28;20516;-71
2023/06/05 06:04:01;;;;;;;10.60;5.20;;;;;;;19.02;68.78;99866.69;5038653;28;20056;-70
2023/06/05 06:06:26;;;;;;;13.57;4.70;;;;;;;19.17;68.41;99867.81;5038280;28;20041;-70
2023/06/05 06:08:52;;;;;;;12.77;5.50;;;;;;;19.22;68.61;99879.13;5033252;28;20026;-69
2023/06/05 06:11:17;;;;;;;10.90;4.87;;;;;;;19.27;68.31;99876.22;5032529;28;20021;-69
2023/06/05 06:13:43;;;;;;;11.40;5.40;;;;;;;19.26;68.54;99873.66;5029796;28;20067;-69
2023/06/05 06:16:09;;;;;;;8.77;4.68;;;;;;;19.25;68.41;99869.25;5029694;28;20021;-69
2023/06/05 06:18:35;;;;;;;10.83;4.50;;;;;;;19.32;68.72;99871.56;5030464;28;20022;-69
2023/06/05 06:21:00;;;;;;;10.75;4.90;;;;;;;19.45;68.37;99869.19;5017448;28;20033;-69
2023/06/05 06:23:26;;;;;;;9.73;4.73;;;;;;;19.62;67.55;99875.50;5027078;28;20033;-69
2023/06/05 06:25:51;;;;;;;10.23;4.50;;;;;;;19.74;67.39;99880.25;5036745;28;20131;-69
2023/06/05 06:28:17;;;;;;;11.55;4.53;;;;;;;19.86;67.53;99869.91;5030778;28;20108;-72
2023/06/05 06:30:43;;;;;;;8.00;4.07;;;;;;;19.79;67.61;99869.34;5034042;28;20061;-72
2023/06/05 06:33:08;;;;;;;10.55;4.80;;;;;;;19.79;67.55;99867.53;5033636;28;20458;-71
2023/06/05 06:35:34;;;;;;;11.10;4.37;;;;;;;19.89;67.39;99867.06;5028185;28;20088;-70
2023/06/05 06:38:00;;;;;;;11.68;4.53;;;;;;;19.94;67.19;99870.44;5033937;28;20029;-70
2023/06/05 06:40:28;;;;;;;10.70;4.68;;;;;;;20.08;67.08;99873.28;5034090;28;20035;-69
2023/06/05 06:42:54;;;;;;;9.52;4.30;;;;;;;20.20;67.08;99861.09;5034584;28;20080;-70
2023/06/05 06:45:19;;;;;;;6.83;3.40;;;;;;;20.32;66.35;99859.59;5027143;28;20034;-70
2023/06/05 06:47:45;;;;;;;10.23;4.30;;;;;;;20.41;66.67;99862.78;5036835;28;20056;-70
2023/06/05 06:50:11;;;;;;;11.27;4.13;;;;;;;20.48;66.24;99869.53;5037514;28;20026;-70
2023/06/05 06:52:36;;;;;;;9.13;4.23;;;;;;;20.53;66.17;99872.81;5037790;28;20429;-70
2023/06/05 06:55:02;;;;;;;10.70;4.67;;;;;;;20.59;66.03;99867.13;5037666;28;20027;-70
2023/06/05 06:57:27;;;;;;;10.02;4.15;;;;;;;20.62;66.40;99876.81;5037515;28;20041;-70
2023/06/05 06:59:53;;;;;;;8.37;4.50;;;;;;;20.71;66.15;99875.47;5037530;28;20107;-70
2023/06/05 07:02:20;;;;;;;11.67;4.57;;;;;;;20.75;66.22;99875.25;5038427;28;20051;-70
2023/06/05 07:04:47;;;;;;;7.68;3.90;;;;;;;20.81;66.34;99873.22;5019414;28;20028;-70
2023/06/05 07:07:16;;;;;;;10.13;4.70;;;;;;;20.93;65.47;99865.41;5037349;28;20116;-70
2023/06/05 07:09:43;;;;;;;10.07;5.10;;;;;;;21.05;65.61;99869.22;5037539;28;20053;-70
2023/06/05 07:12:09;;;;;;;10.88;4.63;;;;;;;21.01;65.54;99869.47;5037175;28;20033;-70
2023/06/05 07:14:35;;;;;;;11.17;4.60;;;;;;;20.96;65.93;99871.53;5037205;28;20082;-70
2023/06/05 07:17:01;;;;;;;9.27;4.40;;;;;;;21.06;65.48;99875.44;5019214;28;20017;-70
2023/06/05 07:19:31;;;;;;;9.13;5.28;;;;;;;21.19;66.04;99876.50;5037005;28;20046;-70
2023/06/05 07:21:57;;;;;;;10.88;4.40;;;;;;;21.36;65.25;99877.38;5019440;28;20033;-70
2023/06/05 07:24:28;;;;;;;9.33;4.67;;;;;;;21.45;65.41;99873.31;5037149;28;20132;-70
2023/06/05 07:26:58;;;;;;;8.27;4.80;;;;;;;21.48;64.92;99873.16;5036855;28;20029;-70
2023/06/05 07:29:24;;;;;;;10.95;4.82;;;;;;;21.50;65.24;99872.09;5036995;28;20081;-70
2023/06/05 07:31:50;;;;;;;12.27;5.00;;;;;;;21.64;65.00;99874.03;5036746;28;20609;-70
2023/06/05 07:34:18;;;;;;;11.87;4.80;;;;;;;21.80;64.65;99871.34;5037095;28;20746;-70
2023/06/05 07:36:45;;;;;;;11.75;5.32;;;;;;;22.09;64.01;99865.25;5036973;28;20029;-70
2023/06/05 07:39:11;;;;;;;9.52;4.68;;;;;;;22.44;62.92;99865.00;5019243;28;20029;-70
2023/06/05 07:41:37;;;;;;;10.18;4.60;;;;;;;22.83;62.53;99864.47;5018863;28;20030;-70
2023/06/05 07:44:03;;;;;;;13.68;5.30;;;;;;;23.21;61.79;99863.91;5036972;28;20040;-70
2023/06/05 07:46:28;;;;;;;11.83;6.10;;;;;;;23.33;61.58;99863.16;5036267;28;20021;-71
2023/06/05 07:48:54;;;;;;;10.67;6.07;;;;;;;23.43;61.67;99857.19;5019072;28;20079;-70
2023/06/05 07:51:20;;;;;;;10.80;6.47;;;;;;;23.45;60.43;99856.13;5036371;28;20060;-70
2023/06/05 07:53:45;;;;;;;13.48;6.00;;;;;;;23.56;60.35;99852.72;5037070;28;20029;-70
2023/06/05 07:56:11;;;;;;;11.80;5.67;;;;;;;23.77;60.49;99854.97;5036751;28;20422;-70
2023/06/05 07:58:38;;;;;;;11.00;5.25;;;;;;;24.02;60.30;99859.63;5036778;28;20394;-70
2023/06/05 08:01:06;;;;;;;10.95;5.55;;;;;;;24.30;60.07;99848.81;5038175;28;20028;-70
2023/06/05 08:03:32;;;;;;;12.73;5.40;;;;;;;24.55;59.23;99855.19;5036773;28;20107;-70
2023/06/05 08:05:58;;;;;;;11.03;5.50;;;;;;;24.60;58.59;99853.91;5036500;28;20025;-70
2023/06/05 08:08:23;;;;;;;11.32;5.43;;;;;;;24.50;59.36;99842.91;5036623;28;20572;-70
2023/06/05 08:10:49;;;;;;;12.67;5.67;;;;;;;24.46;59.45;99846.78;5036242;28;20087;-70
2023/06/05 08:13:14;;;;;;;13.80;5.93;;;;;;;24.38;59.28;99838.41;5036765;28;20014;-70
2023/06/05 08:15:40;;;;;;;9.43;5.55;;;;;;;24.43;58.96;99838.06;5036553;28;20029;-70
2023/06/05 08:18:05;;;;;;;9.97;5.70;;;;;;;24.52;58.39;99846.34;5036593;28;20022;-70
2023/06/05 08:20:31;;;;;;;13.87;5.63;;;;;;;24.61;58.16;99834.09;5036299;28;20048;-70
2023/06/05 08:22:59;;;;;;;12.87;7.00;;;;;;;24.62;58.54;99840.34;5036641;28;20448;-70
2023/06/05 08:25:25;;;;;;;15.15;7.10;;;;;;;24.57;58.48;99837.97;5036344;28;20021;-70
2023/06/05 08:27:50;;;;;;;11.65;5.97;;;;;;;24.50;58.19;99836.69;5036755;28;20033;-70
2023/06/05 08:30:17;;;;;;;13.50;6.35;;;;;;;24.57;58.01;99837.09;5036101;28;20017;-70
2023/06/05 08:32:43;;;;;;;9.13;5.57;;;;;;;24.72;58.36;99835.19;5036296;28;20025;-70
2023/06/05 08:35:09;;;;;;;12.20;5.75;;;;;;;24.98;58.17;99835.19;5036208;28;20478;-70
2023/06/05 08:37:35;;;;;;;11.00;6.00;;;;;;;25.00;56.52;99839.47;5036199;28;20030;-70
2023/06/05 08:40:06;;;;;;;11.23;6.50;;;;;;;24.94;56.77;99830.00;5036325;28;20509;-70
2023/06/05 08:42:31;;;;;;;13.95;6.60;;;;;;;24.94;57.26;99832.69;5036412;28;20025;-70
2023/06/05 08:44:57;;;;;;;11.27;5.88;;;;;;;25.06;57.36;99835.50;5018433;28;20121;-70
2023/06/05 08:47:26;;;;;;;11.37;5.80;;;;;;;25.26;57.11;99838.59;5036139;28;20555;-70
2023/06/05 08:49:53;;;;;;;10.30;6.25;;;;;;;25.51;56.57;99833.16;5036089;28;20033;-70
2023/06/05 08:52:21;;;;;;;10.13;5.32;;;;;;;25.82;56.87;99834.53;5036484;28;20389;-70
2023/06/05 08:54:46;;;;;;;9.90;5.87;;;;;;;26.04;56.33;99823.84;5018451;28;20034;-70
2023/06/05 08:57:12;;;;;;;10.85;6.70;;;;;;;26.17;55.94;99826.47;5036321;28;20021;-70
2023/06/05 08:59:39;;;;;;;13.20;6.40;;;;;;;26.21;54.69;99819.03;5036450;28;20037;-70
2023/06/05 09:02:05;;;;;;;11.20;5.95;;;;;;;26.25;54.92;99825.91;5038875;28;20025;-70
2023/06/05 09:04:31;;;;;;;10.27;6.07;;;;;;;26.42;55.24;99819.19;5039437;28;20041;-70
2023/06/05 09:06:57;;;;;;;10.05;5.88;;;;;;;26.68;54.49;99815.44;5039827;28;20029;-70
2023/06/05 09:09:23;;;;;;;12.85;6.60;;;;;;;26.85;54.24;99817.66;5039521;28;20025;-70
2023/06/05 09:12:05;;;;;;;11.97;6.43;;;;;;;26.73;52.92;99810.50;5039832;28;20030;-70
2023/06/05 09:14:31;;;;;;;10.95;6.20;;;;;;;26.73;53.94;99813.22;5022714;28;20097;-70
2023/06/05 09:16:57;;;;;;;13.15;6.72;;;;;;;26.79;53.78;99807.31;5039373;28;20441;-70
2023/06/05 09:19:27;;;;;;;9.85;6.38;;;;;;;26.78;53.29;99808.28;5039455;28;20025;-70
2023/06/05 09:21:54;;;;;;;9.82;5.32;;;;;;;26.83;53.41;99806.06;5039660;28;20025;-70
2023/06/05 09:24:22;;;;;;;8.57;5.20;;;;;;;27.11;53.67;99809.28;5039438;28;20036;-71
2023/06/05 09:26:58;;;;;;;10.65;6.35;;;;;;;27.30;52.41;99808.66;5039203;28;20021;-70
2023/06/05 09:29:30;;;;;;;11.38;5.57;;;;;;;27.46;52.24;99802.84;5039259;28;20031;-70
2023/06/05 09:31:57;;;;;;;10.27;5.40;;;;;;;27.71;52.47;99808.06;5039131;28;20565;-70
2023/06/05 09:34:28;;;;;;;11.25;6.38;;;;;;;27.86;50.89;99805.94;5038871;28;20112;-70
2023/06/05 09:36:57;;;;;;;10.80;5.90;;;;;;;27.84;50.81;99802.47;5021465;28;20025;-70
2023/06/05 09:39:25;;;;;;;12.23;6.10;;;;;;;27.84;50.56;99802.47;5039278;28;20030;-70
2023/06/05 09:41:51;;;;;;;11.85;5.63;;;;;;;27.86;51.48;99811.38;5039083;28;20040;-71
2023/06/05 09:44:20;;;;;;;10.13;6.07;;;;;;;27.86;50.47;99801.38;5039033;28;20029;-70
2023/06/05 09:46:55;;;;;;;13.27;6.07;;;;;;;27.94;50.29;99795.31;5038299;28;20050;-70
2023/06/05 09:49:31;;;;;;;14.10;5.87;;;;;;;28.07;49.40;99793.28;5020996;28;20084;-71
2023/06/05 09:52:01;;;;;;;8.77;5.38;;;;;;;28.18;49.68;99794.25;5039099;28;20022;-70
2023/06/05 09:54:30;;;;;;;9.90;5.47;;;;;;;28.23;49.63;99797.41;5038966;28;20029;-70
2023/06/05 09:56:59;;;;;;;10.27;4.60;;;;;;;28.40;50.18;99793.22;5038813;28;20029;-71
2023/06/05 09:59:31;;;;;;;11.82;6.00;;;;;;;28.57;49.56;99791.75;5038853;28;20056;-71
2023/06/05 10:02:00;;;;;;;13.53;5.63;;;;;;;28.63;48.52;99795.78;5039964;28;20104;-71
2023/06/05 10:04:30;;;;;;;11.13;5.57;;;;;;;28.64;48.09;99790.25;5020571;28;20091;-70
2023/06/05 10:07:00;;;;;;;9.60;4.88;;;;;;;28.72;48.07;99794.13;5038724;28;20481;-70
2023/06/05 10:09:27;;;;;;;10.38;4.93;;;;;;;28.84;48.06;99790.38;5038036;28;20047;-71
2023/06/05 10:11:54;;;;;;;7.28;4.50;;;;;;;28.91;47.74;99796.94;5038489;28;20037;-70
2023/06/05 10:14:20;;;;;;;8.97;4.90;;;;;;;29.07;47.10;99787.44;5020562;28;20504;-70
2023/06/05 10:16:50;;;;;;;7.65;4.90;;;;;;;29.26;46.34;99788.47;5038252;28;20462;-71
2023/06/05 10:19:18;;;;;;;8.15;4.65;;;;;;;29.42;47.64;99788.81;5007651;28;20033;-71
2023/06/05 10:21:45;;;;;;;9.50;5.15;;;;;;;29.58;46.86;99788.28;5038364;28;20539;-71
2023/06/05 10:24:33;;;;;;;8.13;5.20;;;;;;;29.70;47.00;99788.16;5038358;28;20134;-70
2023/06/05 10:27:20;;;;;;;7.87;4.83;;;;;;;29.87;46.79;99784.69;5038190;28;20405;-71
2023/06/05 10:30:10;;;;;;;7.68;4.80;;;;;;;29.87;45.75;99784.69;5037736;28;20033;-70
2023/06/05 10:32:59;;;;;;;8.02;5.22;;;;;;;29.87;45.47;99775.72;5020235;28;20486;-70
2023/06/05 10:35:43;;;;;;;6.90;4.45;;;;;;;29.92;45.85;99773.41;5024936;28;20095;-71
2023/06/05 10:38:18;;;;;;;7.85;4.75;;;;;;;29.99;45.58;99777.25;5037991;28;20048;-70
2023/06/05 10:40:52;;;;;;;9.53;5.20;;;;;;;29.98;44.33;99772.84;5020237;28;20052;-70
2023/06/05 10:43:25;;;;;;;9.23;4.65;;;;;;;29.85;45.08;99775.00;5037771;28;20032;-71
2023/06/05 10:45:51;;;;;;;7.32;4.50;;;;;;;29.98;44.87;99767.41;5020242;28;20087;-70
2023/06/05 10:48:17;;;;;;;7.35;4.47;;;;;;;30.06;44.34;99770.31;5037561;28;20053;-71
2023/06/05 10:50:43;;;;;;;11.70;4.85;;;;;;;30.03;43.76;99761.59;5037663;28;20037;-71
2023/06/05 10:53:41;;;;;;;7.50;4.10;;;;;;;29.96;44.01;99755.84;5037763;28;20100;-71
2023/06/05 10:56:07;;;;;;;7.63;4.43;;;;;;;30.18;44.21;99764.69;5019906;28;20033;-71
2023/06/05 10:58:32;;;;;;;8.53;3.63;;;;;;;30.34;43.73;99753.22;5037630;28;20044;-70
2023/06/05 11:01:19;;;;;;;10.07;4.13;;;;;;;30.55;43.31;99755.75;5037802;28;20109;-71
2023/06/05 11:03:56;;;;;;;7.53;4.00;;;;;;;30.77;42.46;99751.81;5019817;28;20453;-71
2023/06/05 11:06:22;;;;;;;6.53;3.75;;;;;;;30.97;42.25;99739.97;5037299;28;20052;-71
2023/06/05 11:09:14;;;;;;;6.40;4.00;;;;;;;31.09;41.44;99746.91;5037233;28;20083;-71
2023/06/05 11:12:09;;;;;;;8.43;3.90;;;;;;;31.21;41.93;99740.25;5037465;28;20089;-71
2023/06/05 11:14:45;;;;;;;9.68;3.83;;;;;;;31.32;41.59;99741.91;5009539;28;20037;-71
2023/06/05 11:17:27;;;;;;;7.47;3.73;;;;;;;31.22;40.23;99733.81;5037196;28;20025;-71
2023/06/05 11:19:53;;;;;;;7.05;3.67;;;;;;;31.11;39.75;99736.75;5037062;28;20029;-71
2023/06/05 11:22:18;;;;;;;7.90;3.57;;;;;;;31.12;40.93;99740.31;5037202;28;20053;-71
2023/06/05 11:24:44;;;;;;;8.25;3.83;;;;;;;31.22;40.94;99733.81;5036896;28;20034;-71
2023/06/05 11:27:41;;;;;;;11.13;4.50;;;;;;;31.31;39.68;99728.47;5036344;28;20044;-71
2023/06/05 11:30:15;;;;;;;10.20;4.10;;;;;;;31.44;40.01;99725.38;5036853;28;20021;-71
2023/06/05 11:32:41;;;;;;;7.68;3.72;;;;;;;31.56;40.15;99721.38;5036993;28;20048;-70